KTOP/TOP METAR and TAF weather

Enter ICAO airport designator
Station Type Date Time Source
KTOP METAR 2020/04/05 19:53 UTC NOAA

KTOP 051953Z 18014KT 10SM OVC032 14/06 A3005 RMK AO2 SLP176 T01440061 $


Station Type Date Time Source
KTOP Decoded METAR 2020/04/05 19:53 UTC NOAA

TOPEKA BILLARD MUNICIPAL AIRPORT, KS, United States (KTOP) 39-04N 95-38W 268M
Apr 05, 2020 - 03:53 PM EDT / 2020.04.05 1953 UTC
Wind: from the S (180 degrees) at 16 MPH (14 KT):0
Visibility: 10 mile(s):0
Sky conditions: overcast
Temperature: 57.9 F (14.4 C)
Dew Point: 43.0 F (6.1 C)
Relative Humidity: 57%
Pressure (altimeter): 30.05 in. Hg (1017 hPa)
ob: KTOP 051953Z 18014KT 10SM OVC032 14/06 A3005 RMK AO2 SLP176 T01440061
cycle: 20

Station Type Date Time Source
KTOP TAF 2020/04/05 20:18 UTC NOAA

TAF
AMD KTOP 052015Z 0520/0618 18010KT 6SM FU SCT030
FM060400 15005KT P6SM OVC025
FM060700 15007KT 6SM BR SCT006 BKN008
FM061400 19012G22KT P6SM SCT008 BKN014

Example: see airport list